Time;durP1;ratioP1;P1;durP2;ratioP2;P2;SDS_P1;SDS_P2;PMS_P1;PMS_P2;Temp;Humidity;BMP_temperature;BMP_pressure;BME280_temperature;BME280_humidity;BME280_pressure;Samples;Min_cycle;Max_cycle;Signal;HPM_P1;HPM_P2
2022/08/08 00:00:20;;;;;;;19.42;9.80;;;;;;;;;;3330624;42;20111;-57
2022/08/08 00:02:50;;;;;;;22.13;9.87;;;;;;;;;;3325618;42;20092;-58
2022/08/08 00:05:15;;;;;;;17.33;9.60;;;;;;;;;;3339935;42;20095;-57
2022/08/08 00:07:52;;;;;;;17.85;9.48;;;;;;;;;;3335986;42;20085;-58
2022/08/08 00:10:25;;;;;;;19.63;9.38;;;;;;;;;;3337624;42;20101;-58
2022/08/08 00:13:01;;;;;;;17.65;9.43;;;;;;;;;;3327771;42;20089;-58
2022/08/08 00:15:30;;;;;;;18.50;9.40;;;;;;;;;;3333988;42;20104;-59
2022/08/08 00:18:01;;;;;;;21.38;9.98;;;;;;;;;;3330042;42;20091;-58
2022/08/08 00:20:48;;;;;;;18.48;9.15;;;;;;;;;;3332430;42;20132;-58
2022/08/08 00:23:20;;;;;;;18.55;8.95;;;;;;;;;;3340756;42;20115;-58
2022/08/08 00:25:48;;;;;;;15.77;9.25;;;;;;;;;;3333666;42;20104;-59
2022/08/08 00:28:15;;;;;;;16.33;8.90;;;;;;;;;;3321176;42;20108;-58
2022/08/08 00:30:46;;;;;;;17.02;9.20;;;;;;;;;;3328745;42;20097;-58
2022/08/08 00:33:16;;;;;;;18.23;9.23;;;;;;;;;;3326230;42;20096;-58
2022/08/08 00:35:49;;;;;;;16.40;8.95;;;;;;;;;;3318440;42;20100;-58
2022/08/08 00:38:59;;;;;;;17.17;9.20;;;;;;;;;;3331091;42;20093;-60
2022/08/08 00:41:52;;;;;;;18.90;9.60;;;;;;;;;;3327940;42;20104;-60
2022/08/08 00:44:38;;;;;;;16.80;9.40;;;;;;;;;;3340561;42;20189;-59
2022/08/08 00:47:39;;;;;;;18.35;9.20;;;;;;;;;;3340176;42;20511;-60
2022/08/08 00:50:23;;;;;;;16.30;8.75;;;;;;;;;;3316595;42;20097;-58
2022/08/08 00:53:08;;;;;;;19.48;9.70;;;;;;;;;;3337166;42;20596;-60
2022/08/08 00:55:52;;;;;;;16.50;9.10;;;;;;;;;;3342405;42;20503;-58
2022/08/08 00:58:27;;;;;;;17.58;9.45;;;;;;;;;;3334069;42;20567;-64
2022/08/08 01:01:05;;;;;;;16.33;9.10;;;;;;;;;;3337766;42;20101;-59
2022/08/08 01:03:53;;;;;;;17.35;9.48;;;;;;;;;;3337549;42;20615;-59
2022/08/08 01:07:13;;;;;;;16.48;9.70;;;;;;;;;;3331277;42;20100;-59
2022/08/08 01:10:07;;;;;;;17.93;9.67;;;;;;;;;;3299191;43;20651;-56
2022/08/08 01:13:04;;;;;;;17.88;9.27;;;;;;;;;;3293093;43;20095;-58
2022/08/08 01:15:45;;;;;;;18.65;9.60;;;;;;;;;;3330872;42;20089;-57
2022/08/08 01:18:29;;;;;;;20.77;9.40;;;;;;;;;;3346019;42;20147;-56
2022/08/08 01:21:20;;;;;;;20.00;9.63;;;;;;;;;;3332284;42;20078;-59
2022/08/08 01:24:02;;;;;;;17.77;9.27;;;;;;;;;;3342019;42;20139;-57
2022/08/08 01:26:47;;;;;;;19.13;9.45;;;;;;;;;;3333263;42;20093;-57
2022/08/08 01:29:41;;;;;;;18.17;9.80;;;;;;;;;;3336989;42;20140;-59
2022/08/08 01:32:43;;;;;;;19.98;9.27;;;;;;;;;;3339148;42;20481;-59
2022/08/08 01:35:15;;;;;;;17.40;8.93;;;;;;;;;;3332293;42;20140;-57
2022/08/08 01:37:56;;;;;;;17.03;9.27;;;;;;;;;;3337228;42;20168;-58
2022/08/08 01:40:40;;;;;;;20.10;8.88;;;;;;;;;;3335805;42;20187;-59
2022/08/08 01:43:30;;;;;;;21.33;9.68;;;;;;;;;;3339996;42;20147;-58
2022/08/08 01:46:29;;;;;;;17.40;9.00;;;;;;;;;;3343741;42;20101;-57
2022/08/08 01:49:20;;;;;;;17.58;9.35;;;;;;;;;;3331199;42;20214;-59
2022/08/08 01:52:27;;;;;;;16.63;9.77;;;;;;;;;;3339368;42;20085;-58
2022/08/08 01:55:16;;;;;;;22.83;9.55;;;;;;;;;;3324857;42;20085;-59
2022/08/08 01:57:52;;;;;;;15.57;8.98;;;;;;;;;;3331467;42;20089;-59
2022/08/08 02:00:42;;;;;;;16.05;8.82;;;;;;;;;;3324115;42;20096;-59
2022/08/08 02:03:38;;;;;;;18.23;9.10;;;;;;;;;;3331668;42;20101;-58
2022/08/08 02:06:25;;;;;;;20.73;9.23;;;;;;;;;;3337529;42;20096;-59
2022/08/08 02:08:59;;;;;;;16.40;9.20;;;;;;;;;;3326817;42;20590;-58
2022/08/08 02:11:28;;;;;;;16.67;9.57;;;;;;;;;;3318461;42;20105;-59
2022/08/08 02:14:07;;;;;;;16.42;9.13;;;;;;;;;;3336513;42;20230;-59
2022/08/08 02:16:41;;;;;;;17.40;9.38;;;;;;;;;;3335707;42;20093;-59
2022/08/08 02:19:35;;;;;;;16.27;9.03;;;;;;;;;;3336096;42;20085;-58
2022/08/08 02:22:30;;;;;;;15.73;9.02;;;;;;;;;;3333282;42;20085;-59
2022/08/08 02:25:14;;;;;;;16.38;9.20;;;;;;;;;;3334628;42;20093;-60
2022/08/08 02:27:57;;;;;;;16.75;9.30;;;;;;;;;;3327468;42;20172;-55
2022/08/08 02:30:55;;;;;;;16.75;9.30;;;;;;;;;;3329431;42;20517;-59
2022/08/08 02:33:44;;;;;;;18.90;9.50;;;;;;;;;;3321727;42;20584;-59
2022/08/08 02:36:48;;;;;;;16.27;9.07;;;;;;;;;;3335483;42;20093;-59
2022/08/08 02:39:19;;;;;;;18.42;9.55;;;;;;;;;;3338488;42;20303;-59
2022/08/08 02:41:56;;;;;;;19.00;9.60;;;;;;;;;;3339035;42;20150;-57
2022/08/08 02:44:30;;;;;;;21.00;9.10;;;;;;;;;;3338474;42;20132;-59
2022/08/08 02:47:24;;;;;;;19.00;9.87;;;;;;;;;;3338214;42;20115;-58
2022/08/08 02:50:08;;;;;;;17.40;9.25;;;;;;;;;;3338111;42;20172;-59
2022/08/08 02:53:08;;;;;;;16.27;8.70;;;;;;;;;;3330231;42;20093;-58
2022/08/08 02:56:12;;;;;;;19.70;9.20;;;;;;;;;;3338270;42;20156;-60
2022/08/08 02:58:59;;;;;;;19.70;9.10;;;;;;;;;;3338454;42;20093;-62
2022/08/08 03:01:56;;;;;;;15.57;8.10;;;;;;;;;;3339325;42;20076;-58
2022/08/08 03:04:37;;;;;;;21.92;10.10;;;;;;;;;;3328959;42;20168;-58
2022/08/08 03:07:41;;;;;;;17.27;8.85;;;;;;;;;;3334761;42;20085;-59
2022/08/08 03:10:34;;;;;;;14.57;8.68;;;;;;;;;;3339317;42;20108;-59
2022/08/08 03:13:22;;;;;;;13.70;8.48;;;;;;;;;;3331976;42;20938;-59
2022/08/08 03:16:14;;;;;;;20.97;11.10;;;;;;;;;;3338373;42;20135;-60
2022/08/08 03:18:52;;;;;;;16.60;9.57;;;;;;;;;;3327966;42;20097;-58
2022/08/08 03:21:18;;;;;;;18.48;11.02;;;;;;;;;;3327688;42;20104;-59
2022/08/08 03:23:45;;;;;;;20.67;12.20;;;;;;;;;;3335768;42;20096;-58
2022/08/08 03:26:15;;;;;;;21.25;12.73;;;;;;;;;;3342445;42;20145;-59
2022/08/08 03:28:54;;;;;;;15.33;10.87;;;;;;;;;;3331670;42;20092;-59
2022/08/08 03:34:07;;;;;;;21.35;11.18;;;;;;;;;;3332067;42;20549;-58
2022/08/08 03:36:41;;;;;;;20.70;11.50;;;;;;;;;;3338124;42;20183;-59
2022/08/08 03:39:10;;;;;;;22.85;10.85;;;;;;;;;;3330794;42;20104;-59
2022/08/08 03:41:36;;;;;;;17.60;10.60;;;;;;;;;;3333143;42;20097;-59
2022/08/08 03:44:02;;;;;;;18.77;10.85;;;;;;;;;;3337079;42;20567;-59
2022/08/08 03:46:28;;;;;;;15.88;9.88;;;;;;;;;;3338235;42;20120;-57
2022/08/08 03:48:57;;;;;;;18.15;9.85;;;;;;;;;;3338589;42;20495;-59
2022/08/08 03:51:24;;;;;;;15.32;9.52;;;;;;;;;;3338121;42;20105;-59
2022/08/08 03:53:53;;;;;;;18.27;10.30;;;;;;;;;;3334945;42;20136;-60
2022/08/08 03:56:20;;;;;;;27.35;10.45;;;;;;;;;;3331971;42;20093;-60
2022/08/08 03:58:52;;;;;;;23.83;12.50;;;;;;;;;;3336596;42;20194;-61
2022/08/08 04:01:18;;;;;;;25.33;12.23;;;;;;;;;;3341021;42;20882;-60
2022/08/08 04:03:46;;;;;;;30.48;14.45;;;;;;;;;;3331984;42;20188;-58
2022/08/08 04:06:12;;;;;;;29.70;15.53;;;;;;;;;;3337978;42;20089;-60
2022/08/08 04:08:38;;;;;;;28.30;15.75;;;;;;;;;;3339124;42;20089;-59
2022/08/08 04:11:05;;;;;;;29.90;15.50;;;;;;;;;;3327342;42;20142;-59
2022/08/08 04:13:31;;;;;;;28.48;14.27;;;;;;;;;;3337706;42;20090;-59
2022/08/08 04:15:57;;;;;;;26.25;13.32;;;;;;;;;;3323166;42;20093;-60
2022/08/08 04:18:23;;;;;;;31.63;14.97;;;;;;;;;;3339085;42;20104;-58
2022/08/08 04:20:49;;;;;;;35.10;16.52;;;;;;;;;;3333802;42;20096;-59
2022/08/08 04:23:15;;;;;;;34.45;15.52;;;;;;;;;;3333497;42;20093;-58
2022/08/08 04:25:41;;;;;;;44.80;20.02;;;;;;;;;;3337081;42;20089;-59
2022/08/08 04:28:08;;;;;;;43.53;18.52;;;;;;;;;;3341343;42;20264;-59
2022/08/08 04:30:34;;;;;;;47.67;16.83;;;;;;;;;;3331544;42;20160;-59
2022/08/08 04:33:00;;;;;;;44.72;17.40;;;;;;;;;;3332655;42;21217;-60
2022/08/08 04:35:26;;;;;;;34.45;14.95;;;;;;;;;;3343515;42;20639;-60
2022/08/08 04:37:52;;;;;;;33.25;14.55;;;;;;;;;;3338819;42;20155;-58
2022/08/08 04:40:19;;;;;;;36.42;15.23;;;;;;;;;;3337401;42;20119;-57
2022/08/08 04:42:45;;;;;;;33.23;14.40;;;;;;;;;;3333927;42;20199;-53
2022/08/08 04:45:11;;;;;;;31.58;14.38;;;;;;;;;;3333885;42;20379;-56
2022/08/08 04:47:37;;;;;;;32.20;13.93;;;;;;;;;;3336148;42;20103;-56
2022/08/08 04:50:04;;;;;;;28.35;14.65;;;;;;;;;;3335240;42;20089;-53
2022/08/08 04:52:30;;;;;;;36.38;18.27;;;;;;;;;;3332841;42;20104;-54
2022/08/08 04:54:57;;;;;;;30.43;15.17;;;;;;;;;;3331156;42;20093;-54
2022/08/08 04:57:23;;;;;;;31.48;15.65;;;;;;;;;;3339682;42;20570;-51
2022/08/08 04:59:49;;;;;;;31.52;15.43;;;;;;;;;;3328289;42;20571;-53
2022/08/08 05:02:15;;;;;;;35.57;16.37;;;;;;;;;;3332782;42;20096;-54
2022/08/08 05:52:37;;;;;;;48.03;27.70;;;;;;;;;;3023755;46;20387;-54
2022/08/08 05:55:09;;;;;;;43.45;24.95;;;;;;;;;;3376792;42;20556;-55
2022/08/08 05:57:37;;;;;;;38.10;25.23;;;;;;;;;;3379104;42;20183;-54
2022/08/08 06:00:06;;;;;;;37.78;22.75;;;;;;;;;;3378790;42;20519;-56
2022/08/08 06:05:18;;;;;;;39.60;22.30;;;;;;;;;;3386419;42;20096;-54
2022/08/08 06:07:45;;;;;;;41.28;21.67;;;;;;;;;;3376753;42;20129;-53
2022/08/08 06:10:11;;;;;;;36.13;21.63;;;;;;;;;;3379347;42;20537;-52
2022/08/08 06:12:38;;;;;;;33.67;18.52;;;;;;;;;;3376702;42;20601;-49
2022/08/08 06:15:05;;;;;;;38.78;22.90;;;;;;;;;;3367109;42;20091;-54
2022/08/08 06:17:32;;;;;;;41.63;24.05;;;;;;;;;;3377081;42;20091;-53
2022/08/08 06:20:00;;;;;;;44.90;23.83;;;;;;;;;;3368815;42;20098;-54
2022/08/08 06:22:26;;;;;;;50.38;26.08;;;;;;;;;;3373216;42;20154;-54
2022/08/08 06:24:52;;;;;;;50.60;27.80;;;;;;;;;;3375613;42;20524;-53
2022/08/08 06:27:21;;;;;;;47.45;27.30;;;;;;;;;;3380056;42;20572;-55
2022/08/08 06:30:08;;;;;;;56.17;29.17;;;;;;;;;;3369168;42;20548;-53
2022/08/08 06:32:41;;;;;;;54.80;28.77;;;;;;;;;;3374300;42;20568;-56
2022/08/08 06:35:10;;;;;;;45.97;26.17;;;;;;;;;;3375857;42;20103;-54
2022/08/08 06:37:37;;;;;;;45.95;27.00;;;;;;;;;;3363025;42;20102;-55
2022/08/08 06:40:05;;;;;;;43.28;25.08;;;;;;;;;;3379157;42;20107;-52
2022/08/08 06:42:34;;;;;;;36.78;21.38;;;;;;;;;;3384481;42;20098;-52
2022/08/08 06:45:04;;;;;;;36.50;19.60;;;;;;;;;;3379365;42;20094;-54
2022/08/08 06:47:30;;;;;;;32.67;20.10;;;;;;;;;;3379406;42;20109;-53
2022/08/08 06:49:57;;;;;;;32.72;20.05;;;;;;;;;;3380936;42;20091;-55
2022/08/08 06:52:23;;;;;;;33.60;20.00;;;;;;;;;;3366201;42;20166;-54
2022/08/08 06:54:49;;;;;;;35.67;19.35;;;;;;;;;;3369283;42;20095;-54
2022/08/08 06:57:15;;;;;;;35.45;22.33;;;;;;;;;;3370824;42;20091;-54
2022/08/08 06:59:41;;;;;;;39.47;20.90;;;;;;;;;;3367127;42;20088;-52
2022/08/08 07:02:08;;;;;;;37.45;21.20;;;;;;;;;;3370092;42;20103;-55
2022/08/08 07:04:55;;;;;;;44.92;26.15;;;;;;;;;;3365568;42;20127;-55
2022/08/08 07:07:32;;;;;;;48.03;26.38;;;;;;;;;;3359964;42;20080;-54
2022/08/08 07:10:04;;;;;;;42.95;25.00;;;;;;;;;;3362604;42;20167;-51
2022/08/08 07:12:34;;;;;;;42.88;23.85;;;;;;;;;;3368263;42;20102;-59
2022/08/08 07:15:04;;;;;;;49.05;25.40;;;;;;;;;;3369600;42;20091;-59
2022/08/08 07:17:35;;;;;;;34.63;21.35;;;;;;;;;;3367554;42;20173;-59
2022/08/08 07:20:06;;;;;;;35.63;21.58;;;;;;;;;;3366973;42;20095;-59
2022/08/08 07:23:07;;;;;;;39.17;22.73;;;;;;;;;;3369027;42;20099;-56
2022/08/08 07:25:40;;;;;;;37.47;21.67;;;;;;;;;;3377008;42;20080;-59
2022/08/08 07:28:14;;;;;;;31.63;18.92;;;;;;;;;;3367146;42;20111;-58
2022/08/08 07:30:40;;;;;;;33.75;16.95;;;;;;;;;;3370538;42;20135;-57
2022/08/08 07:33:10;;;;;;;22.17;12.07;;;;;;;;;;3371439;42;20110;-62
2022/08/08 07:35:37;;;;;;;20.58;13.02;;;;;;;;;;3366320;42;20174;-59
2022/08/08 07:38:03;;;;;;;21.70;11.90;;;;;;;;;;3370611;42;20587;-59
2022/08/08 07:40:29;;;;;;;17.83;11.48;;;;;;;;;;3370872;42;21619;-58
2022/08/08 07:42:55;;;;;;;17.15;11.43;;;;;;;;;;3367899;42;20628;-59
2022/08/08 07:45:21;;;;;;;20.30;12.35;;;;;;;;;;3373493;42;20101;-58
2022/08/08 07:47:47;;;;;;;19.00;12.33;;;;;;;;;;3368854;42;20617;-58
2022/08/08 07:50:13;;;;;;;19.77;11.68;;;;;;;;;;3369575;42;20110;-58
2022/08/08 07:52:45;;;;;;;21.35;11.77;;;;;;;;;;3375242;42;20552;-58
2022/08/08 07:55:44;;;;;;;16.98;10.50;;;;;;;;;;3375259;42;20628;-57
2022/08/08 07:58:19;;;;;;;15.02;10.32;;;;;;;;;;3350655;42;20146;-58
2022/08/08 08:00:54;;;;;;;17.93;9.90;;;;;;;;;;3367552;42;20113;-59
2022/08/08 08:03:51;;;;;;;17.50;11.82;;;;;;;;;;3367256;42;20107;-58
2022/08/08 08:06:18;;;;;;;17.10;11.90;;;;;;;;;;3375123;42;20091;-58
2022/08/08 08:09:06;;;;;;;18.30;10.38;;;;;;;;;;3375105;42;20110;-59
2022/08/08 08:11:33;;;;;;;16.27;9.77;;;;;;;;;;3373675;42;20115;-57
2022/08/08 08:14:04;;;;;;;17.47;9.73;;;;;;;;;;3380282;42;20178;-59
2022/08/08 08:16:42;;;;;;;21.80;10.00;;;;;;;;;;3375014;42;20129;-59
2022/08/08 08:19:09;;;;;;;17.13;9.63;;;;;;;;;;3373711;42;20130;-59
2022/08/08 08:21:43;;;;;;;18.35;11.50;;;;;;;;;;3374384;42;20569;-57
2022/08/08 08:24:09;;;;;;;22.27;15.90;;;;;;;;;;3373426;42;20108;-58
2022/08/08 08:26:36;;;;;;;21.13;15.20;;;;;;;;;;3373604;42;20106;-57
2022/08/08 08:29:03;;;;;;;26.60;16.13;;;;;;;;;;3375076;42;20208;-58
2022/08/08 08:31:29;;;;;;;23.70;13.77;;;;;;;;;;3375229;42;20098;-59
2022/08/08 08:33:56;;;;;;;22.65;14.25;;;;;;;;;;3374967;42;20555;-61
2022/08/08 08:36:23;;;;;;;21.48;14.48;;;;;;;;;;3358723;42;20091;-58
2022/08/08 08:38:49;;;;;;;23.57;15.00;;;;;;;;;;3366207;42;20605;-57
2022/08/08 08:41:19;;;;;;;21.42;14.80;;;;;;;;;;3374109;42;20086;-56
2022/08/08 08:43:46;;;;;;;19.80;13.30;;;;;;;;;;3367238;42;20576;-57
2022/08/08 08:46:13;;;;;;;20.88;13.85;;;;;;;;;;3367460;42;20151;-58
2022/08/08 08:48:40;;;;;;;21.95;13.60;;;;;;;;;;3374496;42;20559;-60
2022/08/08 08:51:10;;;;;;;20.90;12.13;;;;;;;;;;3370702;42;20540;-59
2022/08/08 08:53:36;;;;;;;17.92;12.18;;;;;;;;;;3369498;42;20130;-57
2022/08/08 08:56:03;;;;;;;17.77;12.18;;;;;;;;;;3369211;42;20095;-57
2022/08/08 08:58:38;;;;;;;19.20;12.75;;;;;;;;;;3369099;42;20099;-58
2022/08/08 09:01:05;;;;;;;24.65;13.98;;;;;;;;;;3370521;42;20603;-58
2022/08/08 09:03:31;;;;;;;16.57;11.00;;;;;;;;;;3364906;42;20091;-57
2022/08/08 09:05:57;;;;;;;16.25;10.27;;;;;;;;;;3372422;42;20090;-57
2022/08/08 09:08:24;;;;;;;15.35;10.88;;;;;;;;;;3369811;42;20595;-59
2022/08/08 09:10:50;;;;;;;16.17;11.15;;;;;;;;;;3375953;42;20137;-59
2022/08/08 09:13:16;;;;;;;18.38;11.23;;;;;;;;;;3370224;42;20137;-58
2022/08/08 09:15:43;;;;;;;19.90;12.63;;;;;;;;;;3374430;42;20149;-59
2022/08/08 09:18:09;;;;;;;16.83;12.60;;;;;;;;;;3373059;42;20087;-59
2022/08/08 09:20:38;;;;;;;17.75;11.90;;;;;;;;;;3360410;42;20188;-58
2022/08/08 09:23:04;;;;;;;16.33;11.48;;;;;;;;;;3373596;42;20188;-54
2022/08/08 09:25:32;;;;;;;19.88;12.45;;;;;;;;;;3373034;42;20203;-60
2022/08/08 09:27:57;;;;;;;17.00;11.93;;;;;;;;;;3354969;42;20157;-56
2022/08/08 09:30:24;;;;;;;19.33;11.82;;;;;;;;;;3364166;42;20232;-57
2022/08/08 09:32:54;;;;;;;19.65;12.70;;;;;;;;;;3371438;42;20095;-57
2022/08/08 09:35:24;;;;;;;17.17;11.93;;;;;;;;;;3370221;42;20091;-56
2022/08/08 09:37:52;;;;;;;19.05;12.85;;;;;;;;;;3363420;42;20142;-56
2022/08/08 09:40:19;;;;;;;22.67;14.30;;;;;;;;;;3375179;42;20101;-56
2022/08/08 09:42:48;;;;;;;22.40;13.90;;;;;;;;;;3363593;42;20110;-57
2022/08/08 09:45:22;;;;;;;23.45;13.98;;;;;;;;;;3371160;42;20091;-57
2022/08/08 09:47:48;;;;;;;21.50;13.55;;;;;;;;;;3359352;42;20169;-58
2022/08/08 09:50:18;;;;;;;23.48;13.20;;;;;;;;;;3370483;42;20133;-55
2022/08/08 09:52:51;;;;;;;22.50;13.33;;;;;;;;;;3371920;42;20124;-57
2022/08/08 09:55:18;;;;;;;20.83;13.10;;;;;;;;;;3370461;42;20162;-57
2022/08/08 09:57:50;;;;;;;21.05;13.13;;;;;;;;;;3370313;42;20341;-57
2022/08/08 10:00:18;;;;;;;21.73;13.50;;;;;;;;;;3371752;42;20095;-59
2022/08/08 10:02:48;;;;;;;20.70;13.07;;;;;;;;;;3371243;42;20498;-58
2022/08/08 10:05:24;;;;;;;20.40;12.53;;;;;;;;;;3358339;42;20788;-57
2022/08/08 10:07:50;;;;;;;22.25;13.48;;;;;;;;;;3379204;42;20086;-59
2022/08/08 10:10:31;;;;;;;24.38;12.90;;;;;;;;;;3372399;42;20141;-57
2022/08/08 10:12:57;;;;;;;19.15;11.88;;;;;;;;;;3374292;42;20572;-55
2022/08/08 10:15:25;;;;;;;20.15;13.07;;;;;;;;;;3372976;42;20102;-55
2022/08/08 10:17:52;;;;;;;19.53;12.10;;;;;;;;;;3379837;42;20095;-53
2022/08/08 10:20:18;;;;;;;19.02;12.43;;;;;;;;;;3371386;42;20088;-53
2022/08/08 10:23:10;;;;;;;18.70;11.75;;;;;;;;;;3372020;42;20098;-52
2022/08/08 10:25:36;;;;;;;34.75;12.98;;;;;;;;;;3380552;42;20102;-53
2022/08/08 10:28:02;;;;;;;24.45;12.88;;;;;;;;;;3368395;42;20094;-51
2022/08/08 10:30:29;;;;;;;20.30;12.70;;;;;;;;;;3369058;42;20102;-54
2022/08/08 10:32:58;;;;;;;23.60;13.43;;;;;;;;;;3368978;42;20099;-54
2022/08/08 10:35:26;;;;;;;21.50;13.55;;;;;;;;;;3376748;42;20109;-50
2022/08/08 10:37:57;;;;;;;14.05;8.75;;;;;;;;;;3375407;42;20130;-50
2022/08/08 10:40:25;;;;;;;14.75;8.10;;;;;;;;;;3376371;42;20090;-54
2022/08/08 10:43:02;;;;;;;11.50;7.30;;;;;;;;;;3368735;42;20110;-52
2022/08/08 10:45:29;;;;;;;13.25;8.70;;;;;;;;;;3375326;42;20162;-53
2022/08/08 10:47:57;;;;;;;15.52;8.52;;;;;;;;;;3375909;42;20075;-53
2022/08/08 10:50:34;;;;;;;17.80;10.75;;;;;;;;;;3368320;42;20138;-51
2022/08/08 10:53:12;;;;;;;18.60;10.23;;;;;;;;;;3373701;42;20090;-53
2022/08/08 10:55:41;;;;;;;16.37;11.10;;;;;;;;;;3376022;42;20150;-50
2022/08/08 10:58:08;;;;;;;17.27;10.63;;;;;;;;;;3368212;42;20229;-54
2022/08/08 11:00:34;;;;;;;15.88;10.73;;;;;;;;;;3371029;42;20099;-54
2022/08/08 11:03:14;;;;;;;19.88;11.48;;;;;;;;;;3373996;42;20094;-53
2022/08/08 11:05:48;;;;;;;18.00;11.48;;;;;;;;;;3375934;42;20695;-52
2022/08/08 11:08:40;;;;;;;16.93;11.10;;;;;;;;;;3376235;42;20152;-53
2022/08/08 11:11:09;;;;;;;17.35;10.85;;;;;;;;;;3374906;42;20121;-51
2022/08/08 11:13:43;;;;;;;15.82;10.85;;;;;;;;;;3375697;42;20253;-53
2022/08/08 11:16:12;;;;;;;16.00;10.13;;;;;;;;;;3376057;42;20562;-52
2022/08/08 11:18:38;;;;;;;17.27;11.70;;;;;;;;;;3374263;42;20099;-55
2022/08/08 11:21:06;;;;;;;16.23;10.90;;;;;;;;;;3374772;42;20103;-54
2022/08/08 11:23:35;;;;;;;18.88;11.10;;;;;;;;;;3374229;42;20102;-53
2022/08/08 11:26:04;;;;;;;18.55;11.32;;;;;;;;;;3378516;42;20168;-55
2022/08/08 11:28:35;;;;;;;17.52;9.60;;;;;;;;;;3374139;42;20544;-53
2022/08/08 11:31:03;;;;;;;13.10;8.73;;;;;;;;;;3360023;42;20643;-51
2022/08/08 11:33:30;;;;;;;12.40;8.53;;;;;;;;;;3375684;42;20079;-54
2022/08/08 11:35:56;;;;;;;11.63;8.15;;;;;;;;;;3375400;42;20566;-54
2022/08/08 11:38:26;;;;;;;13.82;8.38;;;;;;;;;;3374008;42;20584;-51
2022/08/08 11:40:52;;;;;;;12.68;8.32;;;;;;;;;;3373687;42;20155;-55
2022/08/08 11:43:18;;;;;;;13.80;8.43;;;;;;;;;;3374383;42;20126;-55
2022/08/08 11:45:44;;;;;;;10.77;7.53;;;;;;;;;;3374038;42;20115;-49
2022/08/08 11:48:12;;;;;;;12.27;8.35;;;;;;;;;;3373125;42;20225;-54
2022/08/08 11:50:38;;;;;;;18.48;8.52;;;;;;;;;;3358247;42;20135;-51
2022/08/08 11:53:04;;;;;;;13.13;8.77;;;;;;;;;;3364028;42;20098;-54
2022/08/08 11:55:30;;;;;;;14.07;8.45;;;;;;;;;;3357703;42;20095;-51
2022/08/08 11:58:07;;;;;;;15.27;8.73;;;;;;;;;;3365237;42;20138;-51
2022/08/08 12:00:33;;;;;;;13.57;8.23;;;;;;;;;;3364805;42;20147;-54
2022/08/08 12:02:59;;;;;;;13.55;8.90;;;;;;;;;;3363067;42;20111;-54
2022/08/08 12:05:33;;;;;;;12.93;8.40;;;;;;;;;;3362493;42;20206;-53
2022/08/08 12:07:59;;;;;;;14.52;8.85;;;;;;;;;;3364968;42;20107;-55
2022/08/08 12:10:26;;;;;;;15.50;9.27;;;;;;;;;;3372509;42;20107;-51
2022/08/08 12:13:06;;;;;;;17.10;8.60;;;;;;;;;;3364849;42;20703;-52
2022/08/08 12:15:50;;;;;;;13.30;9.05;;;;;;;;;;3357350;42;20524;-52
2022/08/08 12:18:24;;;;;;;12.60;8.60;;;;;;;;;;3357912;42;20177;-53
2022/08/08 12:20:50;;;;;;;15.82;8.77;;;;;;;;;;3364760;42;20195;-53
2022/08/08 12:23:33;;;;;;;13.23;8.80;;;;;;;;;;3364882;42;20107;-53
2022/08/08 12:26:09;;;;;;;18.30;8.05;;;;;;;;;;3364858;42;20100;-52
2022/08/08 12:28:35;;;;;;;15.15;8.02;;;;;;;;;;3356023;42;20553;-53
2022/08/08 12:31:08;;;;;;;13.63;7.55;;;;;;;;;;3372075;42;20103;-51
2022/08/08 12:33:34;;;;;;;13.98;7.47;;;;;;;;;;3364598;42;20100;-56
2022/08/08 12:36:10;;;;;;;12.53;7.73;;;;;;;;;;3364635;42;20146;-52
2022/08/08 12:38:50;;;;;;;17.17;8.15;;;;;;;;;;3363345;42;20092;-50
2022/08/08 12:41:18;;;;;;;13.68;7.90;;;;;;;;;;3355894;42;20100;-55
2022/08/08 12:43:44;;;;;;;12.30;7.60;;;;;;;;;;3363495;42;20095;-52
2022/08/08 12:46:14;;;;;;;14.55;8.10;;;;;;;;;;3356600;42;20147;-51
2022/08/08 12:48:41;;;;;;;13.93;7.80;;;;;;;;;;3363211;42;20095;-51
2022/08/08 12:51:20;;;;;;;15.77;8.10;;;;;;;;;;3353590;42;20130;-52
2022/08/08 12:53:59;;;;;;;14.88;8.02;;;;;;;;;;3359180;42;20083;-51
2022/08/08 12:56:52;;;;;;;11.65;7.78;;;;;;;;;;3364822;42;20142;-50
2022/08/08 12:59:21;;;;;;;14.23;7.88;;;;;;;;;;3363898;42;20098;-51
2022/08/08 13:01:54;;;;;;;15.47;7.97;;;;;;;;;;3364195;42;20529;-53
2022/08/08 13:04:25;;;;;;;13.90;8.27;;;;;;;;;;3364603;42;20118;-53
2022/08/08 13:06:56;;;;;;;15.77;8.68;;;;;;;;;;3362983;42;20091;-53
2022/08/08 13:09:57;;;;;;;15.60;7.80;;;;;;;;;;3360839;42;20107;-51
2022/08/08 13:12:32;;;;;;;17.95;8.57;;;;;;;;;;3321176;42;20515;-55
2022/08/08 13:15:07;;;;;;;14.20;7.97;;;;;;;;;;3351492;42;20130;-52
2022/08/08 13:17:33;;;;;;;18.17;8.80;;;;;;;;;;3371829;42;20144;-51
2022/08/08 13:19:59;;;;;;;16.50;8.40;;;;;;;;;;3364459;42;20143;-53
2022/08/08 13:22:25;;;;;;;15.25;7.97;;;;;;;;;;3362897;42;20560;-51
2022/08/08 13:24:51;;;;;;;13.75;8.52;;;;;;;;;;3364056;42;20587;-51
2022/08/08 13:27:25;;;;;;;13.60;8.23;;;;;;;;;;3362777;42;20116;-50
2022/08/08 13:29:58;;;;;;;14.35;8.65;;;;;;;;;;3361148;42;20080;-53
2022/08/08 13:32:27;;;;;;;16.08;8.65;;;;;;;;;;3360027;42;20557;-53
2022/08/08 13:34:54;;;;;;;14.13;8.02;;;;;;;;;;3362795;42;20251;-51
2022/08/08 13:37:22;;;;;;;13.38;8.45;;;;;;;;;;3363034;42;20584;-50
2022/08/08 13:39:49;;;;;;;19.90;8.20;;;;;;;;;;3364152;42;20092;-53
2022/08/08 13:42:16;;;;;;;15.27;8.77;;;;;;;;;;3364845;42;20166;-52
2022/08/08 13:44:42;;;;;;;14.77;8.55;;;;;;;;;;3356948;42;20099;-52
2022/08/08 13:47:13;;;;;;;16.83;8.38;;;;;;;;;;3364140;42;20095;-52
2022/08/08 13:49:39;;;;;;;15.82;8.88;;;;;;;;;;3354017;42;20111;-53
2022/08/08 13:52:06;;;;;;;17.77;8.63;;;;;;;;;;3363816;42;20108;-51
2022/08/08 13:54:37;;;;;;;16.42;8.40;;;;;;;;;;3362787;42;20168;-52
2022/08/08 13:57:06;;;;;;;15.40;8.85;;;;;;;;;;3356031;42;20099;-54
2022/08/08 13:59:43;;;;;;;15.65;8.82;;;;;;;;;;3364141;42;20095;-54
2022/08/08 14:02:16;;;;;;;18.63;8.85;;;;;;;;;;3364062;42;20547;-50
2022/08/08 14:04:56;;;;;;;16.13;8.00;;;;;;;;;;3364496;42;20131;-52
2022/08/08 14:07:24;;;;;;;15.23;8.45;;;;;;;;;;3363903;42;20162;-52
2022/08/08 14:09:50;;;;;;;15.85;8.65;;;;;;;;;;3364983;42;20561;-51
2022/08/08 14:12:16;;;;;;;15.90;8.13;;;;;;;;;;3366068;42;20557;-51
2022/08/08 14:14:44;;;;;;;15.70;8.70;;;;;;;;;;3365744;42;20565;-54
2022/08/08 14:17:11;;;;;;;17.33;8.63;;;;;;;;;;3358663;42;20668;-50
2022/08/08 14:19:39;;;;;;;14.65;8.30;;;;;;;;;;3366049;42;20561;-55
2022/08/08 14:22:17;;;;;;;17.80;9.00;;;;;;;;;;3366183;42;20493;-54
2022/08/08 14:24:51;;;;;;;19.63;8.60;;;;;;;;;;3368560;42;20533;-54
2022/08/08 14:27:26;;;;;;;16.90;8.70;;;;;;;;;;3365429;42;20601;-51
2022/08/08 14:30:16;;;;;;;14.63;8.57;;;;;;;;;;3365761;42;20076;-51
2022/08/08 14:32:46;;;;;;;16.38;8.98;;;;;;;;;;3365512;42;20088;-55
2022/08/08 14:35:13;;;;;;;19.45;8.98;;;;;;;;;;3364537;42;20537;-53
2022/08/08 14:37:43;;;;;;;16.70;8.68;;;;;;;;;;3364201;42;20170;-55
2022/08/08 14:40:10;;;;;;;18.80;9.10;;;;;;;;;;3359442;42;20166;-52
2022/08/08 14:42:38;;;;;;;16.20;7.97;;;;;;;;;;3357443;42;20114;-55
2022/08/08 14:45:09;;;;;;;15.80;8.25;;;;;;;;;;3364313;42;20170;-54
2022/08/08 14:47:51;;;;;;;14.93;8.55;;;;;;;;;;3363966;42;20075;-55
2022/08/08 14:50:27;;;;;;;15.13;8.40;;;;;;;;;;3366582;42;20533;-52
2022/08/08 14:52:59;;;;;;;15.90;8.63;;;;;;;;;;3371565;42;20094;-54
2022/08/08 14:55:26;;;;;;;17.07;8.90;;;;;;;;;;3384666;42;20102;-55
2022/08/08 14:57:53;;;;;;;17.05;9.20;;;;;;;;;;3375888;42;20138;-54
2022/08/08 15:00:19;;;;;;;24.23;9.10;;;;;;;;;;3374621;42;20099;-53
2022/08/08 15:02:46;;;;;;;18.73;8.23;;;;;;;;;;3374254;42;20099;-53
2022/08/08 15:05:13;;;;;;;13.93;8.35;;;;;;;;;;3368641;42;20099;-50
2022/08/08 15:07:40;;;;;;;16.50;9.30;;;;;;;;;;3382467;42;20106;-52
2022/08/08 15:10:06;;;;;;;20.85;10.70;;;;;;;;;;3375935;42;20491;-51
2022/08/08 15:12:32;;;;;;;18.48;9.93;;;;;;;;;;3376020;42;20099;-52
2022/08/08 15:14:58;;;;;;;16.52;9.35;;;;;;;;;;3367532;42;20106;-53
2022/08/08 15:17:24;;;;;;;14.43;8.70;;;;;;;;;;3375910;42;20106;-53
2022/08/08 15:19:51;;;;;;;17.23;9.17;;;;;;;;;;3375632;42;20849;-54
2022/08/08 15:22:17;;;;;;;16.90;9.02;;;;;;;;;;3374323;42;20095;-53
2022/08/08 15:24:43;;;;;;;17.83;9.23;;;;;;;;;;3372577;42;20102;-52
2022/08/08 15:27:09;;;;;;;17.67;8.98;;;;;;;;;;3370370;42;20102;-51
2022/08/08 15:29:35;;;;;;;16.77;9.25;;;;;;;;;;3376005;42;20079;-52
2022/08/08 15:32:02;;;;;;;18.03;9.20;;;;;;;;;;3375759;42;20152;-52
2022/08/08 15:34:28;;;;;;;15.52;9.10;;;;;;;;;;3375531;42;20105;-52
2022/08/08 15:36:56;;;;;;;14.88;8.95;;;;;;;;;;3375802;42;20097;-53
2022/08/08 15:39:22;;;;;;;16.20;9.32;;;;;;;;;;3375818;42;20090;-53
2022/08/08 15:41:48;;;;;;;21.52;9.05;;;;;;;;;;3375760;42;20109;-53
2022/08/08 15:44:14;;;;;;;15.70;9.70;;;;;;;;;;3375654;42;20087;-55
2022/08/08 15:46:40;;;;;;;22.08;9.13;;;;;;;;;;3376709;42;20090;-55
2022/08/08 15:49:06;;;;;;;19.45;9.48;;;;;;;;;;3375659;42;20570;-54